This is the latest recevied weather packets stored in our database for station/object WO5CID. If no packets are shown the sender has not sent any weather packets the latest 10 day(s).
| Time | Temp. | Humidity | Pressure | Rain* | Wind** | Luminosity | Snow |
|---|---|---|---|---|---|---|---|
| 1778091581 | 32.78° C | 40% | 1016 hPa | 0 mm | - | 899 W/m² | - |
| 1778091279 | 32.78° C | 39% | 1016 hPa | 0 mm | - | 700 W/m² | - |
| 1778090970 | 32.78° C | 41% | 1016.3 hPa | 0 mm | - | 813 W/m² | - |
| 1778090667 | 32.78° C | 39% | 1016.3 hPa | 0 mm | - | 864 W/m² | - |
| 1778090364 | 33.33° C | 40% | 1016.1 hPa | 0 mm | - | 782 W/m² | - |
| 1778090060 | 32.78° C | 41% | 1016 hPa | 0 mm | - | 903 W/m² | - |
| 1778089757 | 32.22° C | 41% | 1016.2 hPa | 0 mm | - | 808 W/m² | - |
| 1778089455 | 32.22° C | 41% | 1016.3 hPa | 0 mm | - | 965 W/m² | - |
| 1778089152 | 32.78° C | 41% | 1016.2 hPa | 0 mm | - | 904 W/m² | - |
| 1778088849 | 32.22° C | 43% | 1016.5 hPa | 0 mm | - | 862 W/m² | - |
| 1778088546 | 31.67° C | 43% | 1016.7 hPa | 0 mm | - | 825 W/m² | - |
| 1778088242 | 31.67° C | 44% | 1016.4 hPa | 0 mm | - | 786 W/m² | - |
| 1778087940 | 31.67° C | 43% | 1016.8 hPa | 0 mm | - | 757 W/m² | - |
| 1778087637 | 31.67° C | 43% | 1016.5 hPa | 0 mm | - | 706 W/m² | - |
| 1778087335 | 30.56° C | 47% | 1016.6 hPa | 0 mm | - | 765 W/m² | - |
| 1778087030 | 31.11° C | 44% | 1016.8 hPa | 0 mm | - | 737 W/m² | - |
| 1778086730 | 31.11° C | 45% | 1017 hPa | 0 mm | - | 599 W/m² | - |
| 1778086427 | 30.56° C | 46% | 1016.9 hPa | 0 mm | - | 669 W/m² | - |
| 1778086123 | 30.56° C | 45% | 1016.9 hPa | 0 mm | - | 816 W/m² | - |
| 1778085820 | 30.56° C | 44% | 1017 hPa | 0 mm | - | 582 W/m² | - |
| 1778085518 | 30.56° C | 45% | 1017 hPa | 0 mm | - | 655 W/m² | - |
| 1778085212 | 30.56° C | 45% | 1016.9 hPa | 0 mm | - | 691 W/m² | - |
| 1778084907 | 30.56° C | 46% | 1017.1 hPa | 0 mm | - | 764 W/m² | - |
| 1778084605 | 30.56° C | 46% | 1017.1 hPa | 0 mm | - | 644 W/m² | - |
| 1778084297 | 30.56° C | 46% | 1017.1 hPa | 0 mm | - | 786 W/m² | - |
* Rain latest hour (hover to see other rain measurements)
** Current wind speed in m/s (hover to see current wind gust speed)